createdAt,value
2023-03-03T00:00:28.508Z,-1.78
2023-03-03T00:05:33.832Z,-1.71
2023-03-03T00:10:36.982Z,-1.59
2023-03-03T00:15:39.736Z,-1.47
2023-03-03T00:20:50.047Z,-1.15
2023-03-03T00:25:54.665Z,-0.95
2023-03-03T00:31:00.217Z,-0.94
2023-03-03T00:36:14.731Z,-0.95
2023-03-03T00:41:24.269Z,-1.02
2023-03-03T00:46:26.924Z,-1.15
2023-03-03T00:51:33.234Z,-1.10
2023-03-03T00:56:35.827Z,-1.19
2023-03-03T01:01:38.519Z,-1.45
2023-03-03T01:06:41.210Z,-1.44
2023-03-03T01:11:43.893Z,-1.36
2023-03-03T01:16:46.739Z,-1.63
2023-03-03T01:21:49.288Z,-1.86
2023-03-03T01:26:52.081Z,-1.70
2023-03-03T01:31:54.898Z,-1.47
2023-03-03T01:36:57.694Z,-1.45
2023-03-03T01:42:00.278Z,-1.34
2023-03-03T01:47:29.782Z,-1.09
2023-03-03T01:52:39.737Z,-0.96
2023-03-03T01:57:47.063Z,-1.00
2023-03-03T02:02:49.951Z,-1.03
2023-03-03T02:07:53.128Z,-1.23
2023-03-03T02:12:57.898Z,-1.20
2023-03-03T02:18:05.872Z,-1.32
2023-03-03T02:23:20.856Z,-1.21
2023-03-03T02:28:28.061Z,-1.08
2023-03-03T02:33:30.899Z,-1.09
2023-03-03T02:38:36.541Z,-0.94
2023-03-03T02:43:46.261Z,-0.98
2023-03-03T02:48:49.744Z,-1.04
2023-03-03T02:53:52.483Z,-0.99
2023-03-03T02:58:55.391Z,-1.11
2023-03-03T03:03:58.961Z,-1.09
2023-03-03T03:09:02.060Z,-1.02
2023-03-03T03:14:08.025Z,-0.91
2023-03-03T03:19:11.278Z,-0.94
2023-03-03T03:24:15.558Z,-1.01
2023-03-03T03:29:23.527Z,-1.08
2023-03-03T03:34:26.987Z,-1.01
2023-03-03T03:39:31.567Z,-1.22
2023-03-03T03:44:34.334Z,-1.12
2023-03-03T03:49:37.784Z,-1.12
2023-03-03T03:54:41.064Z,-1.21
2023-03-03T03:59:43.735Z,-1.21
2023-03-03T04:04:46.498Z,-1.08
2023-03-03T04:09:49.410Z,-1.12
2023-03-03T04:14:52.126Z,-1.03
2023-03-03T04:19:55.463Z,-0.89
2023-03-03T04:24:58.599Z,-0.95
2023-03-03T04:30:04.839Z,-0.90
2023-03-03T04:35:09.057Z,-0.79
2023-03-03T04:40:15.203Z,-0.69
2023-03-03T04:45:18.641Z,-0.60
2023-03-03T04:50:22.426Z,-0.54
2023-03-03T04:55:25.296Z,-0.46
2023-03-03T05:00:28.170Z,-0.74
2023-03-03T05:05:30.965Z,-0.55
2023-03-03T05:10:35.106Z,-0.49
2023-03-03T05:15:38.017Z,-0.50
2023-03-03T05:20:42.165Z,-0.39
2023-03-03T05:25:47.144Z,-0.26
2023-03-03T05:30:49.789Z,-0.25
2023-03-03T05:35:56.941Z,-0.14
2023-03-03T05:40:59.600Z,-0.04
2023-03-03T05:46:02.292Z,0.03
2023-03-03T05:51:05.464Z,0.26
2023-03-03T05:56:08.213Z,0.55
2023-03-03T06:01:11.020Z,0.39
2023-03-03T06:06:14.256Z,0.33
2023-03-03T06:11:18.700Z,0.21
2023-03-03T06:16:22.030Z,0.48
2023-03-03T06:21:24.742Z,0.86
2023-03-03T06:26:27.331Z,0.81
2023-03-03T06:31:30.080Z,1.22
2023-03-03T06:36:32.744Z,1.37
2023-03-03T06:41:35.410Z,1.38
2023-03-03T06:46:38.150Z,1.50
2023-03-03T06:51:42.255Z,1.40
2023-03-03T06:56:46.394Z,1.52
2023-03-03T07:01:50.640Z,1.33
2023-03-03T07:06:53.195Z,1.32
2023-03-03T07:12:06.825Z,1.18
2023-03-03T07:17:16.553Z,1.38
2023-03-03T07:22:20.582Z,1.50
2023-03-03T07:27:26.554Z,1.59
2023-03-03T07:32:36.769Z,1.40
2023-03-03T07:37:41.941Z,1.32
2023-03-03T07:42:44.476Z,1.17
2023-03-03T07:48:25.304Z,1.23
2023-03-03T07:53:35.036Z,1.59
2023-03-03T07:58:40.107Z,1.80
2023-03-03T08:03:47.364Z,2.23
2023-03-03T08:08:50.168Z,2.33
2023-03-03T08:13:52.737Z,1.93
2023-03-03T08:19:00.347Z,2.18
2023-03-03T08:24:02.923Z,2.37
2023-03-03T08:29:05.717Z,2.52
2023-03-03T08:34:08.634Z,2.34
2023-03-03T08:39:11.397Z,2.44
2023-03-03T08:44:14.024Z,2.24
2023-03-03T08:49:16.710Z,2.49
2023-03-03T08:54:19.385Z,2.63
2023-03-03T08:59:22.503Z,2.76
2023-03-03T09:04:25.103Z,2.96
2023-03-03T09:09:27.854Z,2.92
2023-03-03T09:14:30.457Z,2.99
2023-03-03T09:19:37.475Z,2.85
2023-03-03T09:24:42.950Z,2.67
2023-03-03T09:29:45.647Z,2.88
2023-03-03T09:34:48.281Z,2.69
2023-03-03T09:39:55.814Z,2.53
2023-03-03T09:45:07.236Z,2.99
2023-03-03T09:50:34.829Z,3.14
2023-03-03T09:55:37.513Z,3.15
2023-03-03T10:00:48.996Z,3.10
2023-03-03T10:06:21.522Z,3.44
2023-03-03T10:11:36.682Z,3.23
2023-03-03T10:17:04.120Z,3.51
2023-03-03T10:22:35.834Z,4.11
2023-03-03T10:28:00.225Z,3.70
2023-03-03T10:33:47.355Z,3.08
2023-03-03T10:38:58.777Z,2.82
2023-03-03T10:44:27.506Z,2.89
2023-03-03T10:49:57.883Z,2.93
2023-03-03T10:55:19.161Z,3.21
2023-03-03T11:00:24.539Z,3.33
2023-03-03T11:05:41.740Z,3.31
2023-03-03T11:11:10.073Z,3.07
2023-03-03T11:16:52.763Z,2.93
2023-03-03T11:22:24.338Z,2.89
2023-03-03T11:27:45.278Z,2.82
2023-03-03T11:33:05.156Z,2.67
2023-03-03T11:38:29.076Z,2.83
2023-03-03T11:43:56.755Z,3.09
2023-03-03T11:49:15.703Z,3.11
2023-03-03T11:54:22.754Z,2.75
2023-03-03T11:59:32.763Z,2.81
2023-03-03T12:05:03.653Z,2.85
2023-03-03T12:10:43.603Z,2.88
2023-03-03T12:15:53.939Z,2.92
2023-03-03T12:21:07.726Z,2.80
2023-03-03T12:26:20.760Z,2.84
2023-03-03T12:31:38.842Z,2.74
2023-03-03T12:36:45.331Z,2.65
2023-03-03T12:41:53.781Z,2.63
2023-03-03T12:47:02.386Z,2.45
2023-03-03T12:52:18.348Z,2.41
2023-03-03T12:57:41.124Z,2.64
2023-03-03T13:03:02.271Z,2.80
2023-03-03T13:08:10.790Z,2.56
2023-03-03T13:13:22.704Z,2.68
2023-03-03T13:18:45.174Z,2.61
2023-03-03T13:24:22.951Z,2.71
2023-03-03T13:29:30.473Z,2.74
2023-03-03T13:34:38.840Z,2.78
2023-03-03T13:40:03.740Z,2.89
2023-03-03T13:45:43.827Z,2.74
2023-03-03T13:51:00.884Z,2.90
2023-03-03T13:56:21.424Z,2.85
2023-03-03T14:01:33.407Z,2.84
2023-03-03T14:06:37.857Z,2.74
2023-03-03T14:11:50.177Z,2.63
2023-03-03T14:17:01.475Z,2.24
2023-03-03T14:22:25.088Z,2.16
2023-03-03T14:27:35.388Z,2.06
2023-03-03T14:32:45.316Z,1.86
2023-03-03T14:37:50.946Z,1.79
2023-03-03T14:42:53.445Z,1.86
2023-03-03T14:47:56.154Z,1.45
2023-03-03T14:53:14.184Z,1.41
2023-03-03T14:58:30.542Z,1.25
2023-03-03T15:03:39.032Z,1.22
2023-03-03T15:08:42.582Z,1.19
2023-03-03T15:13:45.370Z,0.87
2023-03-03T15:19:24.903Z,1.02
2023-03-03T15:24:47.523Z,1.07
2023-03-03T15:30:14.381Z,1.03
2023-03-03T15:35:28.082Z,1.20
2023-03-03T15:40:45.608Z,1.25
2023-03-03T15:46:03.261Z,1.14
2023-03-03T15:51:14.586Z,1.08
2023-03-03T15:56:48.679Z,1.01
2023-03-03T16:02:04.233Z,0.85
2023-03-03T16:07:12.951Z,0.86
2023-03-03T16:12:45.958Z,1.00
2023-03-03T16:18:18.051Z,1.06
2023-03-03T16:23:23.442Z,0.87
2023-03-03T16:28:44.749Z,0.84
2023-03-03T16:34:02.890Z,0.74
2023-03-03T16:39:40.932Z,0.66
2023-03-03T16:44:56.501Z,0.14
2023-03-03T16:50:27.079Z,0.07
2023-03-03T16:55:42.855Z,-0.07
2023-03-03T17:00:54.683Z,-0.36
2023-03-03T17:06:02.262Z,-0.47
2023-03-03T17:11:10.388Z,-0.46
2023-03-03T17:16:51.186Z,-0.47
2023-03-03T17:22:11.937Z,-0.38
2023-03-03T17:27:14.482Z,-0.52
2023-03-03T17:32:26.394Z,-0.41
2023-03-03T17:37:43.504Z,-0.27
2023-03-03T17:43:08.951Z,-0.44
2023-03-03T17:48:44.677Z,-0.37
2023-03-03T17:53:59.385Z,-0.42
2023-03-03T17:59:15.779Z,-0.47
2023-03-03T18:04:48.122Z,-0.45
2023-03-03T18:09:50.714Z,-0.49
2023-03-03T18:15:08.070Z,-0.54
2023-03-03T18:20:35.033Z,-0.62
2023-03-03T18:26:01.608Z,-0.83
2023-03-03T18:31:15.305Z,-0.99
2023-03-03T18:36:27.066Z,-1.14
2023-03-03T18:41:34.542Z,-1.24
2023-03-03T18:46:37.121Z,-1.09
2023-03-03T18:51:40.048Z,-1.19
2023-03-03T18:56:53.509Z,-1.48
2023-03-03T19:02:13.538Z,-1.83
2023-03-03T19:07:27.709Z,-1.84
2023-03-03T19:12:45.496Z,-2.00
2023-03-03T19:17:50.023Z,-2.23
2023-03-03T19:23:04.254Z,-2.35
2023-03-03T19:28:16.246Z,-2.32
2023-03-03T19:33:19.136Z,-2.44
2023-03-03T19:38:33.669Z,-2.39
2023-03-03T19:43:45.152Z,-2.47
2023-03-03T19:48:51.887Z,-2.24
2023-03-03T19:54:12.990Z,-2.12
2023-03-03T19:59:38.407Z,-2.03
2023-03-03T20:04:54.081Z,-2.06
2023-03-03T20:10:15.704Z,-1.94
2023-03-03T20:15:22.722Z,-1.81
2023-03-03T20:20:41.350Z,-1.85
2023-03-03T20:25:46.993Z,-1.60
2023-03-03T20:30:55.452Z,-1.49
2023-03-03T20:36:07.319Z,-1.53
2023-03-03T20:41:47.159Z,-1.43
2023-03-03T20:47:28.288Z,-1.37
2023-03-03T20:52:42.381Z,-1.45
2023-03-03T20:58:02.957Z,-1.61
2023-03-03T21:03:30.088Z,-1.52
2023-03-03T21:08:53.611Z,-1.38
2023-03-03T21:13:56.712Z,-1.48
2023-03-03T21:19:00.806Z,-1.49
2023-03-03T21:24:04.052Z,-1.66
2023-03-03T21:29:06.750Z,-1.62
2023-03-03T21:34:25.164Z,-1.36
2023-03-03T21:39:36.663Z,-1.49
2023-03-03T21:44:52.268Z,-1.43
2023-03-03T21:49:54.902Z,-1.46
2023-03-03T21:54:57.463Z,-1.39
2023-03-03T22:00:00.460Z,-1.64
2023-03-03T22:05:03.862Z,-1.41
2023-03-03T22:10:07.814Z,-1.32
2023-03-03T22:15:10.758Z,-1.36
2023-03-03T22:20:17.924Z,-1.33
2023-03-03T22:25:20.484Z,-1.26
2023-03-03T22:30:23.288Z,-1.05
2023-03-03T22:35:25.984Z,-1.13
2023-03-03T22:40:28.716Z,-1.21
2023-03-03T22:45:31.277Z,-1.01
2023-03-03T22:50:39.536Z,-1.02
2023-03-03T22:55:42.220Z,-1.01
2023-03-03T23:00:44.812Z,-1.09
2023-03-03T23:05:51.299Z,-1.12
2023-03-03T23:10:54.610Z,-1.17
2023-03-03T23:16:00.308Z,-1.16
2023-03-03T23:21:03.441Z,-1.06
2023-03-03T23:26:06.068Z,-1.31
2023-03-03T23:31:08.813Z,-1.32
2023-03-03T23:36:11.506Z,-1.21
2023-03-03T23:41:14.437Z,-1.36
2023-03-03T23:46:17.083Z,-1.17
2023-03-03T23:51:19.714Z,-1.19
2023-03-03T23:56:22.751Z,-1.20
